Time;durP1;ratioP1;P1;durP2;ratioP2;P2;SDS_P1;SDS_P2;PMS_P1;PMS_P2;Temp;Humidity;BMP_temperature;BMP_pressure;BME280_temperature;BME280_humidity;BME280_pressure;Samples;Min_cycle;Max_cycle;Signal;HPM_P1;HPM_P2
2023/07/04 00:00:12;;;;;;;1.17;1.17;;;;;;;16.28;100.00;91011.63;5012208;28;20037;-62
2023/07/04 00:02:39;;;;;;;1.92;1.73;;;;;;;16.25;100.00;91021.13;5012153;28;20056;-62
2023/07/04 00:05:05;;;;;;;1.40;1.30;;;;;;;16.21;100.00;91025.63;5011884;28;20065;-63
2023/07/04 00:07:31;;;;;;;9.57;2.42;;;;;;;16.28;100.00;91017.78;5011949;28;20028;-62
2023/07/04 00:09:58;;;;;;;4.22;2.55;;;;;;;16.30;100.00;91020.91;5011799;28;20029;-62
2023/07/04 00:12:24;;;;;;;2.00;1.83;;;;;;;16.28;100.00;91017.78;5011881;28;20030;-62
2023/07/04 00:14:49;;;;;;;1.27;1.27;;;;;;;16.19;100.00;91019.81;5011726;28;20524;-63
2023/07/04 00:17:15;;;;;;;4.00;2.47;;;;;;;16.10;100.00;91017.28;5011578;28;20046;-63
2023/07/04 00:19:40;;;;;;;2.67;2.47;;;;;;;16.02;100.00;91015.50;5011666;28;20022;-63
2023/07/04 00:22:05;;;;;;;2.08;1.88;;;;;;;16.04;100.00;91017.84;5011880;28;20080;-63
2023/07/04 00:24:31;;;;;;;3.28;2.15;;;;;;;16.05;100.00;91019.38;5011561;28;20057;-63
2023/07/04 00:26:57;;;;;;;1.40;1.40;;;;;;;16.02;100.00;91018.19;5011538;28;20041;-63
2023/07/04 00:29:23;;;;;;;2.55;2.25;;;;;;;16.03;100.00;91019.72;5011536;28;20527;-63
2023/07/04 00:31:49;;;;;;;3.97;1.50;;;;;;;15.92;100.00;91018.63;5011412;28;20033;-63
2023/07/04 00:34:15;;;;;;;1.80;1.70;;;;;;;15.78;100.00;91023.56;5011556;28;20045;-63
2023/07/04 00:36:40;;;;;;;3.03;2.38;;;;;;;15.76;100.00;91034.63;5011305;28;20065;-62
2023/07/04 00:39:07;;;;;;;1.48;1.45;;;;;;;15.72;100.00;91025.72;5011408;28;20038;-63
2023/07/04 00:41:33;;;;;;;2.05;1.92;;;;;;;15.56;100.00;91030.16;5011699;28;20038;-62
2023/07/04 00:44:19;;;;;;;1.15;1.05;;;;;;;15.48;100.00;91029.16;5011394;28;20109;-63
2023/07/04 00:47:06;;;;;;;1.80;1.70;;;;;;;15.36;100.00;91031.06;5011235;28;20080;-63
2023/07/04 00:49:41;;;;;;;2.25;1.23;;;;;;;15.31;100.00;91028.59;5011610;28;20038;-63
2023/07/04 00:52:13;;;;;;;1.65;1.55;;;;;;;15.25;100.00;91031.50;5011108;28;20045;-62
2023/07/04 00:54:52;;;;;;;1.83;1.48;;;;;;;15.18;100.00;91031.28;5011344;28;20040;-63
2023/07/04 00:57:19;;;;;;;1.83;1.73;;;;;;;15.11;100.00;91028.34;5011145;28;20463;-63
2023/07/04 00:59:48;;;;;;;1.70;1.60;;;;;;;15.11;100.00;91031.03;5011290;28;20026;-62
2023/07/04 01:02:19;;;;;;;2.17;2.05;;;;;;;15.16;100.00;91030.81;5012749;28;20037;-63
2023/07/04 01:04:48;;;;;;;1.38;1.33;;;;;;;15.24;100.00;91023.78;5015225;28;20072;-62
2023/07/04 01:07:31;;;;;;;2.20;2.10;;;;;;;15.28;100.00;91022.78;5015016;28;20109;-63
2023/07/04 01:10:12;;;;;;;5.47;1.58;;;;;;;15.27;100.00;91023.13;5015053;28;20508;-63
2023/07/04 01:12:39;;;;;;;2.35;2.25;;;;;;;15.38;100.00;91018.88;5014917;28;20095;-62
2023/07/04 01:15:06;;;;;;;2.65;2.42;;;;;;;15.45;100.00;91024.44;5014921;28;20030;-63
2023/07/04 01:17:32;;;;;;;1.77;1.67;;;;;;;15.46;100.00;91031.41;5014760;28;20419;-63
2023/07/04 01:19:59;;;;;;;3.47;2.13;;;;;;;15.54;100.00;91029.72;5015096;28;20041;-63
2023/07/04 01:22:34;;;;;;;1.42;1.20;;;;;;;15.68;100.00;91026.72;5014830;28;20030;-63
2023/07/04 01:24:59;;;;;;;2.78;1.75;;;;;;;15.79;100.00;91025.94;5014767;28;20041;-63
2023/07/04 01:27:28;;;;;;;2.20;2.10;;;;;;;15.99;100.00;91023.44;5014676;28;20042;-63
2023/07/04 01:29:54;;;;;;;2.58;2.33;;;;;;;16.08;100.00;91019.50;5013443;28;20465;-63
2023/07/04 01:32:20;;;;;;;6.32;2.35;;;;;;;16.18;100.00;91024.41;5014625;28;20056;-63
2023/07/04 01:34:46;;;;;;;2.65;2.15;;;;;;;16.23;100.00;91030.63;5014658;28;20488;-63
2023/07/04 01:37:13;;;;;;;3.88;1.92;;;;;;;16.26;100.00;91025.41;5014504;28;20033;-63
2023/07/04 01:39:38;;;;;;;1.65;1.55;;;;;;;16.30;100.00;91025.50;5014406;28;20115;-63
2023/07/04 01:42:04;;;;;;;2.13;2.03;;;;;;;16.31;100.00;91025.16;5014418;28;20496;-63
2023/07/04 01:44:29;;;;;;;3.42;2.47;;;;;;;16.29;100.00;91029.28;5014368;28;20108;-63
2023/07/04 01:46:55;;;;;;;2.20;1.90;;;;;;;16.31;100.00;91030.50;5014324;28;20034;-63
2023/07/04 01:49:20;;;;;;;2.95;2.70;;;;;;;16.36;100.00;91030.25;5014310;28;20100;-62
2023/07/04 01:51:46;;;;;;;1.77;1.67;;;;;;;16.29;100.00;91018.56;5014063;28;20420;-63
2023/07/04 01:54:18;;;;;;;6.63;2.20;;;;;;;16.26;100.00;91016.56;5014476;28;20065;-63
2023/07/04 01:56:47;;;;;;;1.80;1.70;;;;;;;16.17;100.00;91025.50;5014124;28;20084;-63
2023/07/04 01:59:13;;;;;;;2.90;1.95;;;;;;;16.05;100.00;91022.06;5014386;28;20033;-62
2023/07/04 02:01:39;;;;;;;2.28;2.05;;;;;;;15.97;100.00;91028.38;5014044;28;20412;-62
2023/07/04 02:04:04;;;;;;;1.63;1.58;;;;;;;15.96;100.00;91016.06;5014078;28;20034;-62
2023/07/04 02:06:30;;;;;;;4.38;2.22;;;;;;;15.95;100.00;91022.56;5013911;28;20030;-63
2023/07/04 02:08:55;;;;;;;3.92;2.45;;;;;;;15.95;100.00;91019.88;5014189;28;20096;-62
2023/07/04 02:11:20;;;;;;;2.50;2.28;;;;;;;15.87;100.00;91016.19;5013868;28;20028;-62
2023/07/04 02:13:46;;;;;;;3.15;2.85;;;;;;;15.85;100.00;91018.44;5012735;28;20033;-63
2023/07/04 02:16:11;;;;;;;2.28;2.08;;;;;;;15.86;100.00;91014.63;5013763;28;20026;-63
2023/07/04 02:18:36;;;;;;;1.35;1.27;;;;;;;15.93;100.00;91017.50;5013798;28;20034;-63
2023/07/04 02:21:02;;;;;;;2.92;1.45;;;;;;;15.82;100.00;91017.22;5013994;28;20030;-63
2023/07/04 02:23:27;;;;;;;2.47;1.70;;;;;;;15.69;100.00;91023.72;5013757;28;20041;-63
2023/07/04 02:25:54;;;;;;;2.92;2.58;;;;;;;15.63;100.00;91019.69;5013810;28;20083;-63
2023/07/04 02:28:19;;;;;;;2.50;2.35;;;;;;;15.62;100.00;91028.88;5013578;28;20045;-63
2023/07/04 02:30:58;;;;;;;4.30;2.53;;;;;;;15.58;100.00;91017.19;5013614;28;20034;-63
2023/07/04 02:33:24;;;;;;;2.10;2.00;;;;;;;15.58;100.00;91020.66;5013562;28;20030;-63
2023/07/04 02:35:50;;;;;;;8.25;2.45;;;;;;;15.61;100.00;91024.59;5013410;28;20475;-63
2023/07/04 02:38:16;;;;;;;3.40;2.00;;;;;;;15.53;100.00;91020.09;5013382;28;20040;-63
2023/07/04 02:40:47;;;;;;;2.20;1.98;;;;;;;15.47;100.00;91011.53;5013390;28;20107;-63
2023/07/04 02:43:12;;;;;;;2.03;1.85;;;;;;;15.47;100.00;91016.09;5013339;28;20076;-63
2023/07/04 02:45:42;;;;;;;2.05;1.63;;;;;;;15.43;100.00;91020.56;5013199;28;20039;-63
2023/07/04 02:48:08;;;;;;;6.70;3.40;;;;;;;15.39;100.00;91020.44;5013077;28;20045;-63
2023/07/04 02:50:33;;;;;;;2.03;1.77;;;;;;;15.39;100.00;91014.31;5012965;28;20042;-63
2023/07/04 02:52:59;;;;;;;1.20;1.20;;;;;;;15.35;100.00;91014.19;5013322;28;20492;-63
2023/07/04 02:55:25;;;;;;;1.75;1.65;;;;;;;15.35;100.00;91018.78;5013016;28;20492;-63
2023/07/04 02:57:50;;;;;;;3.35;2.05;;;;;;;15.40;100.00;91015.88;5013339;28;20061;-63
2023/07/04 03:00:16;;;;;;;1.83;1.73;;;;;;;15.49;100.00;91019.22;5013250;28;20069;-63
2023/07/04 03:02:41;;;;;;;2.38;2.17;;;;;;;15.52;100.00;91013.19;5012970;28;20033;-63
2023/07/04 03:05:07;;;;;;;6.32;2.53;;;;;;;15.51;100.00;91014.31;5012954;28;20021;-63
2023/07/04 03:07:32;;;;;;;2.88;2.63;;;;;;;15.61;100.00;91013.88;5012761;28;20037;-63
2023/07/04 03:09:59;;;;;;;2.67;2.35;;;;;;;15.58;100.00;91017.97;5012806;28;20030;-63
2023/07/04 03:12:24;;;;;;;2.55;2.30;;;;;;;15.57;100.00;91015.63;5012674;28;20512;-63
2023/07/04 03:14:49;;;;;;;2.58;2.38;;;;;;;15.55;100.00;91017.88;5183204;22;20049;-68
2023/07/04 03:17:15;;;;;;;3.17;1.88;;;;;;;15.53;100.00;91017.44;5032099;28;20025;-68
2023/07/04 03:19:40;;;;;;;2.80;2.58;;;;;;;15.44;100.00;91014.06;5032063;28;20030;-68
2023/07/04 03:22:06;;;;;;;1.75;1.65;;;;;;;15.54;100.00;91021.66;5032012;28;20032;-69
2023/07/04 03:24:31;;;;;;;1.98;1.88;;;;;;;15.57;100.00;91027.13;5031668;28;20061;-69
2023/07/04 03:26:57;;;;;;;1.77;1.67;;;;;;;15.58;100.00;91022.56;5031981;28;20509;-68
2023/07/04 03:29:22;;;;;;;2.55;2.28;;;;;;;15.58;100.00;91028.69;5031521;28;20029;-69
2023/07/04 03:31:49;;;;;;;3.17;2.88;;;;;;;15.57;100.00;91029.81;5031656;28;20049;-67
2023/07/04 03:34:15;;;;;;;1.77;1.67;;;;;;;15.56;100.00;91025.56;5031529;28;20112;-67
2023/07/04 03:36:42;;;;;;;2.80;2.55;;;;;;;15.48;100.00;91033.75;5032038;28;20029;-70
2023/07/04 03:39:08;;;;;;;1.40;1.33;;;;;;;15.46;100.00;91033.28;5030519;28;20033;-68
2023/07/04 03:41:33;;;;;;;1.30;1.25;;;;;;;15.44;100.00;91027.47;5031615;28;20109;-67
2023/07/04 03:44:00;;;;;;;1.40;1.35;;;;;;;15.47;100.00;91032.19;5031485;28;20113;-68
2023/07/04 03:46:26;;;;;;;2.22;2.13;;;;;;;15.52;100.00;91031.94;5031558;28;20033;-67
2023/07/04 03:48:51;;;;;;;2.08;1.08;;;;;;;15.52;100.00;91035.41;5031494;28;20063;-67
2023/07/04 03:51:16;;;;;;;4.20;1.90;;;;;;;15.59;100.00;91029.50;5031387;28;20099;-67
2023/07/04 03:53:42;;;;;;;1.73;1.55;;;;;;;15.66;100.00;91034.31;5031261;28;20029;-67
2023/07/04 03:56:07;;;;;;;1.25;1.23;;;;;;;15.71;100.00;91040.25;5031731;28;20026;-67
2023/07/04 03:58:33;;;;;;;2.05;1.92;;;;;;;15.70;100.00;91030.63;5031417;28;20497;-67
2023/07/04 04:01:01;;;;;;;1.60;1.38;;;;;;;15.83;100.00;91044.81;5031407;28;20036;-67
2023/07/04 04:03:27;;;;;;;1.60;1.50;;;;;;;15.99;100.00;91034.97;5031234;28;20041;-67
2023/07/04 04:05:53;;;;;;;3.25;2.95;;;;;;;16.14;100.00;91033.47;5031454;28;20036;-67
2023/07/04 04:08:18;;;;;;;3.00;2.10;;;;;;;16.28;100.00;91033.88;5031254;28;20036;-67
2023/07/04 04:10:44;;;;;;;5.63;3.30;;;;;;;16.42;100.00;91038.88;5031254;28;20105;-67
2023/07/04 04:13:10;;;;;;;1.73;1.63;;;;;;;16.56;100.00;91047.31;5031044;28;20474;-67
2023/07/04 04:15:35;;;;;;;6.20;2.70;;;;;;;16.68;100.00;91043.81;5030911;28;20053;-67
2023/07/04 04:18:00;;;;;;;2.28;1.92;;;;;;;16.62;100.00;91040.59;5031107;28;20498;-67
2023/07/04 04:20:26;;;;;;;2.17;2.08;;;;;;;16.69;100.00;91040.03;5031155;28;20038;-67
2023/07/04 04:22:51;;;;;;;2.17;1.98;;;;;;;16.68;100.00;91043.81;5031138;28;20033;-67
2023/07/04 04:25:18;;;;;;;1.30;1.27;;;;;;;16.64;100.00;91035.66;5031254;28;20102;-67
2023/07/04 04:27:47;;;;;;;2.95;2.67;;;;;;;16.66;100.00;91040.69;5030990;28;20044;-67
2023/07/04 04:30:13;;;;;;;5.20;1.83;;;;;;;16.89;100.00;91030.22;5030893;28;20115;-67
2023/07/04 04:32:40;;;;;;;2.38;2.17;;;;;;;17.04;100.00;91034.78;5030836;28;20064;-67
2023/07/04 04:35:08;;;;;;;1.98;1.80;;;;;;;17.25;100.00;91038.03;5031034;28;20041;-66
2023/07/04 04:37:34;;;;;;;2.00;1.40;;;;;;;17.44;100.00;91037.34;5030156;28;20406;-66
2023/07/04 04:40:00;;;;;;;1.77;1.67;;;;;;;17.56;100.00;91042.66;5030900;28;20034;-67
2023/07/04 04:42:26;;;;;;;1.88;1.77;;;;;;;17.69;100.00;91045.28;5030894;28;20053;-67
2023/07/04 04:44:53;;;;;;;2.50;2.30;;;;;;;17.79;100.00;91033.97;5030741;28;20034;-67
2023/07/04 04:47:23;;;;;;;2.92;2.17;;;;;;;17.93;100.00;91039.69;5030798;28;20079;-68
2023/07/04 04:49:51;;;;;;;1.60;1.48;;;;;;;18.07;100.00;91042.69;5030785;28;20029;-68
2023/07/04 04:52:21;;;;;;;0.98;0.98;;;;;;;18.14;100.00;91029.38;5030630;28;20025;-67
2023/07/04 04:54:47;;;;;;;3.67;2.47;;;;;;;18.28;100.00;91034.28;5030638;28;20029;-68
2023/07/04 04:57:14;;;;;;;2.70;2.10;;;;;;;18.40;100.00;91036.88;5030543;28;20476;-67
2023/07/04 04:59:40;;;;;;;3.25;1.95;;;;;;;18.56;100.00;91039.50;5015050;28;20159;-68
2023/07/04 05:02:05;;;;;;;1.90;1.77;;;;;;;18.73;100.00;91039.09;5010969;28;20038;-67
2023/07/04 05:04:31;;;;;;;4.07;2.35;;;;;;;18.76;100.00;91035.69;5009473;28;20447;-68
2023/07/04 05:06:57;;;;;;;2.95;2.72;;;;;;;18.78;100.00;91052.31;5011000;28;20111;-68
2023/07/04 05:09:22;;;;;;;3.08;2.83;;;;;;;18.92;100.00;91037.53;5010860;28;20479;-67
2023/07/04 05:11:48;;;;;;;2.78;2.05;;;;;;;18.93;100.00;91049.84;5010797;28;20028;-67
2023/07/04 05:14:14;;;;;;;4.55;4.15;;;;;;;19.05;100.00;91042.41;5010551;28;20042;-67
2023/07/04 05:16:39;;;;;;;2.83;2.50;;;;;;;19.20;100.00;91045.38;5010965;28;20068;-67
2023/07/04 05:19:04;;;;;;;3.15;2.92;;;;;;;19.41;100.00;91041.16;5011011;28;20468;-67
2023/07/04 05:21:30;;;;;;;3.22;2.47;;;;;;;19.56;100.00;91044.09;5010827;28;20018;-67
2023/07/04 05:23:56;;;;;;;2.50;2.30;;;;;;;19.63;100.00;91046.91;5010545;28;20030;-67
2023/07/04 05:26:26;;;;;;;2.67;2.05;;;;;;;19.70;100.00;91047.81;5010664;28;20145;-67
2023/07/04 05:28:54;;;;;;;2.55;2.35;;;;;;;19.62;100.00;91051.53;5010690;28;20042;-68
2023/07/04 05:31:23;;;;;;;2.50;2.30;;;;;;;19.64;100.00;91046.56;5010592;28;20022;-67
2023/07/04 05:33:48;;;;;;;4.50;3.50;;;;;;;19.85;100.00;91048.03;5010533;28;20030;-68
2023/07/04 05:36:17;;;;;;;3.22;2.13;;;;;;;20.19;100.00;91052.41;5025778;28;20028;-68
2023/07/04 05:38:43;;;;;;;8.45;3.30;;;;;;;20.45;100.00;91054.34;5030113;28;20114;-68
2023/07/04 05:41:14;;;;;;;1.60;1.50;;;;;;;20.73;100.00;91047.75;5030234;28;20025;-68
2023/07/04 05:43:41;;;;;;;2.25;2.05;;;;;;;20.83;100.00;91053.31;5029928;28;20427;-66
2023/07/04 05:46:08;;;;;;;2.80;2.25;;;;;;;20.97;100.00;91057.31;5030242;28;20036;-69
2023/07/04 05:48:35;;;;;;;4.30;2.58;;;;;;;21.14;100.00;91062.91;5032035;28;20033;-68
2023/07/04 05:51:03;;;;;;;2.72;2.50;;;;;;;23.15;100.00;91055.97;5033652;28;20468;-69
2023/07/04 05:53:32;;;;;;;1.70;1.50;;;;;;;26.99;100.00;91054.00;5033624;28;20033;-68
2023/07/04 05:56:07;;;;;;;1.83;1.73;;;;;;;29.02;100.00;91051.13;5033702;28;20025;-69
2023/07/04 05:58:33;;;;;;;4.43;1.88;;;;;;;29.91;95.90;91054.84;5033708;28;20029;-68
2023/07/04 06:01:14;;;;;;;2.63;2.40;;;;;;;31.78;64.72;91058.88;5033535;28;20036;-68
2023/07/04 06:03:41;;;;;;;2.90;1.95;;;;;;;33.33;58.52;91056.41;5033497;28;20044;-66
2023/07/04 06:06:14;;;;;;;3.13;2.15;;;;;;;32.62;55.08;91047.69;5033462;28;20030;-66
2023/07/04 06:08:41;;;;;;;5.90;3.85;;;;;;;33.71;52.81;91052.69;5033447;28;20546;-66
2023/07/04 06:11:07;;;;;;;2.78;2.08;;;;;;;34.35;50.06;91055.81;5033290;28;20037;-66
2023/07/04 06:13:33;;;;;;;2.47;2.28;;;;;;;34.75;48.77;91056.63;5033110;28;20021;-65
2023/07/04 06:16:01;;;;;;;3.15;2.17;;;;;;;36.14;46.29;91053.50;5030105;28;20048;-67
2023/07/04 06:18:26;;;;;;;2.75;2.30;;;;;;;36.43;44.94;91057.75;5030500;28;20056;-66
2023/07/04 06:20:52;;;;;;;2.90;2.60;;;;;;;35.69;44.60;91048.78;5033846;28;20551;-64
2023/07/04 06:23:21;;;;;;;2.20;2.05;;;;;;;37.07;42.06;91052.69;5033553;28;20561;-64
2023/07/04 06:25:55;;;;;;;3.08;2.72;;;;;;;37.24;42.12;91050.25;5033954;28;20053;-64
2023/07/04 06:28:20;;;;;;;3.47;2.78;;;;;;;38.06;39.21;91048.88;5033934;28;20037;-68
2023/07/04 06:30:46;;;;;;;28.83;2.10;;;;;;;37.29;40.01;91062.78;5033561;28;20578;-65
2023/07/04 06:33:11;;;;;;;1.65;1.55;;;;;;;37.79;40.05;91055.47;5033119;28;20037;-62
2023/07/04 06:35:41;;;;;;;2.80;1.48;;;;;;;38.51;37.89;91058.03;5033585;28;20018;-69
2023/07/04 06:38:06;;;;;;;2.25;1.80;;;;;;;39.06;36.94;91051.78;5033536;28;20095;-68
2023/07/04 06:40:32;;;;;;;3.05;1.88;;;;;;;39.63;36.25;91054.09;5033535;28;20021;-66
2023/07/04 06:42:57;;;;;;;2.60;2.40;;;;;;;37.48;40.27;91041.97;5033502;28;20399;-65
2023/07/04 06:45:22;;;;;;;3.45;2.83;;;;;;;38.76;38.11;91049.06;5033179;28;20109;-65
2023/07/04 06:47:48;;;;;;;17.27;3.47;;;;;;;39.61;37.10;91053.81;5031482;28;20518;-66
2023/07/04 06:50:13;;;;;;;2.30;2.10;;;;;;;39.70;36.79;91059.25;5033404;28;20109;-67
2023/07/04 06:52:39;;;;;;;1.60;1.50;;;;;;;40.65;36.35;91055.41;5033178;28;20029;-66
2023/07/04 06:55:05;;;;;;;2.22;2.13;;;;;;;42.17;34.63;91051.47;5033125;28;20025;-66
2023/07/04 06:57:31;;;;;;;2.65;2.05;;;;;;;42.67;33.12;91059.19;5033180;28;20033;-63
2023/07/04 06:59:56;;;;;;;7.63;3.03;;;;;;;42.38;32.56;91061.16;5032452;28;20032;-63
2023/07/04 07:02:23;;;;;;;4.82;2.75;;;;;;;41.18;33.94;91065.19;5032765;28;20530;-64
2023/07/04 07:04:48;;;;;;;3.67;2.50;;;;;;;38.60;37.82;91060.69;5033198;28;20025;-64
2023/07/04 07:07:14;;;;;;;3.67;2.40;;;;;;;41.04;35.33;91065.38;5033197;28;20399;-64
2023/07/04 07:09:41;;;;;;;2.38;2.17;;;;;;;41.49;34.40;91058.78;5032910;28;20033;-65
2023/07/04 07:12:09;;;;;;;4.65;3.15;;;;;;;39.49;36.25;91061.25;5032781;28;20029;-66
2023/07/04 07:14:37;;;;;;;2.03;1.92;;;;;;;39.06;36.88;91057.34;5032370;28;20056;-67
2023/07/04 07:17:03;;;;;;;2.05;1.95;;;;;;;41.48;34.90;91057.28;5032830;28;20124;-67
2023/07/04 07:19:29;;;;;;;5.53;2.92;;;;;;;41.58;34.90;91049.44;5033397;28;20041;-67
2023/07/04 07:21:55;;;;;;;3.78;2.92;;;;;;;41.08;34.42;91049.94;5032809;28;20263;-66
2023/07/04 07:24:20;;;;;;;1.75;1.65;;;;;;;41.42;35.18;91044.56;5033106;28;20030;-67
2023/07/04 07:26:45;;;;;;;2.58;2.08;;;;;;;41.14;34.52;91047.16;5032870;28;20037;-67
2023/07/04 07:29:11;;;;;;;1.77;1.67;;;;;;;40.46;34.02;91045.88;5032670;28;20064;-67
2023/07/04 07:31:36;;;;;;;2.15;2.05;;;;;;;41.07;35.05;91059.56;5031226;28;20064;-67
2023/07/04 07:34:03;;;;;;;3.35;2.45;;;;;;;41.88;34.18;91056.19;5032413;28;20045;-67
2023/07/04 07:36:31;;;;;;;4.55;2.50;;;;;;;41.73;34.13;91058.44;5032537;28;20038;-67
2023/07/04 07:38:57;;;;;;;2.83;1.75;;;;;;;43.13;32.84;91052.34;5032405;28;20037;-67
2023/07/04 07:41:33;;;;;;;1.73;1.63;;;;;;;41.61;33.53;91042.84;5032401;28;20034;-67
2023/07/04 07:43:58;;;;;;;1.85;1.75;;;;;;;42.64;33.63;91051.81;5032828;28;20033;-66
2023/07/04 07:46:23;;;;;;;2.55;1.77;;;;;;;42.95;32.20;91057.19;5032478;28;20044;-66
2023/07/04 07:48:49;;;;;;;2.03;1.83;;;;;;;43.20;31.58;91060.19;5032325;28;20549;-66
2023/07/04 07:51:17;;;;;;;2.05;1.95;;;;;;;44.04;31.04;91046.72;5032164;28;20041;-66
2023/07/04 07:53:44;;;;;;;2.55;2.33;;;;;;;45.44;29.40;91056.97;5032166;28;20041;-66
2023/07/04 07:56:11;;;;;;;3.35;2.78;;;;;;;44.19;30.48;91058.41;5032407;28;20064;-66
2023/07/04 07:58:37;;;;;;;3.38;2.17;;;;;;;43.44;31.69;91057.63;5032305;28;20517;-67
2023/07/04 08:01:18;;;;;;;2.20;1.80;;;;;;;37.78;36.38;91053.16;5032144;28;20106;-66
2023/07/04 08:03:44;;;;;;;3.90;2.80;;;;;;;37.82;37.46;91042.63;5031925;28;20033;-66
2023/07/04 08:06:23;;;;;;;3.42;1.88;;;;;;;38.47;36.98;91060.22;5032758;28;20120;-66
2023/07/04 08:08:49;;;;;;;2.10;1.90;;;;;;;39.89;34.00;91054.91;5032031;28;20037;-66
2023/07/04 08:11:15;;;;;;;1.60;1.50;;;;;;;39.77;33.62;91053.25;5031333;28;20530;-66
2023/07/04 08:13:41;;;;;;;3.00;2.03;;;;;;;40.89;33.85;91046.00;5031777;28;20044;-66
2023/07/04 08:16:07;;;;;;;2.55;2.35;;;;;;;40.80;33.42;91051.72;5032130;28;20038;-66
2023/07/04 08:18:32;;;;;;;2.22;2.13;;;;;;;40.95;34.45;91052.38;5032122;28;20040;-66
2023/07/04 08:21:00;;;;;;;2.78;2.17;;;;;;;37.63;38.07;91044.78;5032079;28;20042;-66
2023/07/04 08:23:27;;;;;;;2.40;1.98;;;;;;;36.82;38.79;91044.84;5031394;28;20038;-66
2023/07/04 08:25:52;;;;;;;1.80;1.70;;;;;;;38.42;38.22;91052.56;5031823;28;20135;-65
2023/07/04 08:28:19;;;;;;;3.10;2.72;;;;;;;39.15;36.53;91048.91;5031999;28;20503;-65
2023/07/04 08:30:45;;;;;;;2.38;2.17;;;;;;;40.35;36.14;91051.31;5031631;28;20221;-66
2023/07/04 08:33:11;;;;;;;1.77;1.65;;;;;;;39.68;36.19;91051.38;5031446;28;20080;-66
2023/07/04 08:35:37;;;;;;;3.50;2.20;;;;;;;34.54;42.68;91046.41;5031814;28;20190;-66
2023/07/04 08:38:02;;;;;;;1.92;1.83;;;;;;;32.75;46.31;91040.94;5031560;28;20542;-65
2023/07/04 08:40:28;;;;;;;4.05;2.00;;;;;;;31.58;50.95;91042.50;5032113;28;20038;-66
2023/07/04 08:42:53;;;;;;;3.05;2.25;;;;;;;34.08;45.07;91046.19;5031444;28;20108;-67
2023/07/04 08:45:26;;;;;;;3.13;1.63;;;;;;;38.38;38.65;91049.22;5031808;28;20123;-66
2023/07/04 08:47:55;;;;;;;3.42;1.98;;;;;;;40.67;35.36;91043.75;5031541;28;20469;-65
2023/07/04 08:50:31;;;;;;;4.22;1.92;;;;;;;40.75;34.52;91049.66;5031577;28;20040;-66
2023/07/04 08:53:08;;;;;;;1.55;1.45;;;;;;;42.75;31.58;91049.78;5031267;28;20038;-66
2023/07/04 08:55:42;;;;;;;4.85;2.20;;;;;;;44.09;30.60;91045.97;5032040;28;20046;-66
2023/07/04 08:58:13;;;;;;;2.10;1.90;;;;;;;43.73;30.33;91045.09;5031425;28;20045;-66
2023/07/04 09:00:42;;;;;;;3.25;1.83;;;;;;;46.36;26.83;91042.84;5030022;28;20044;-66
2023/07/04 09:03:49;;;;;;;1.73;1.63;;;;;;;45.54;28.70;91043.31;5031531;28;20084;-66
2023/07/04 09:06:34;;;;;;;1.95;1.58;;;;;;;39.62;34.55;91031.06;5031697;28;20045;-65
2023/07/04 09:09:23;;;;;;;2.60;1.98;;;;;;;40.25;35.30;91036.03;5031609;28;20106;-66
2023/07/04 09:11:49;;;;;;;1.90;1.77;;;;;;;37.36;36.66;91029.09;5031458;28;20407;-65
2023/07/04 09:14:27;;;;;;;1.23;1.08;;;;;;;33.97;41.69;91043.06;5031204;28;20049;-65
2023/07/04 09:16:54;;;;;;;1.98;1.88;;;;;;;31.89;44.97;91039.31;5030101;28;20449;-66
2023/07/04 09:19:20;;;;;;;2.42;1.70;;;;;;;30.94;48.17;91035.97;5031318;28;20040;-67
2023/07/04 09:21:46;;;;;;;2.08;1.88;;;;;;;29.35;55.71;91032.91;5027422;28;20041;-64
2023/07/04 09:24:12;;;;;;;2.33;2.00;;;;;;;29.02;56.42;91036.66;5033913;28;20041;-66
2023/07/04 09:26:44;;;;;;;3.92;1.65;;;;;;;28.92;56.19;91039.19;5034757;28;20511;-65
2023/07/04 09:29:12;;;;;;;2.28;1.92;;;;;;;30.30;56.16;91031.28;5034643;28;20044;-65
2023/07/04 09:31:40;;;;;;;1.95;1.85;;;;;;;35.92;42.64;91031.53;5034724;28;20038;-66
2023/07/04 09:34:14;;;;;;;1.30;1.13;;;;;;;39.46;37.68;91037.16;5034702;28;20475;-66
2023/07/04 09:36:40;;;;;;;2.55;1.60;;;;;;;40.76;36.12;91026.84;5034610;28;20029;-65
2023/07/04 09:39:08;;;;;;;1.63;1.50;;;;;;;42.25;34.50;91044.13;5034847;28;20241;-66
2023/07/04 09:41:37;;;;;;;8.88;2.25;;;;;;;43.21;32.83;91034.47;5034903;28;20041;-66
2023/07/04 09:44:16;;;;;;;3.55;1.67;;;;;;;41.33;33.10;91030.78;5033939;28;20597;-66
2023/07/04 09:46:50;;;;;;;2.78;1.75;;;;;;;41.61;34.58;91025.34;5034724;28;20037;-67
2023/07/04 09:49:27;;;;;;;4.00;3.38;;;;;;;43.57;30.43;91043.09;5034406;28;20045;-66
2023/07/04 09:52:02;;;;;;;2.90;2.10;;;;;;;45.16;28.72;91029.16;5032586;28;20044;-66
2023/07/04 09:54:39;;;;;;;2.20;1.95;;;;;;;45.79;27.47;91033.63;5032776;28;20045;-67
2023/07/04 09:57:28;;;;;;;1.70;1.60;;;;;;;43.32;29.17;91033.72;5034506;28;20044;-67
2023/07/04 09:59:54;;;;;;;1.45;1.35;;;;;;;42.22;30.93;91028.34;5023896;28;20045;-66
2023/07/04 10:02:32;;;;;;;6.50;3.35;;;;;;;41.15;32.59;91027.13;5034220;28;20111;-67
2023/07/04 10:04:57;;;;;;;4.32;3.00;;;;;;;37.06;37.29;91026.19;5034186;28;20046;-68
2023/07/04 10:07:24;;;;;;;1.65;1.55;;;;;;;34.66;41.09;91031.72;5033931;28;20042;-66
2023/07/04 10:09:56;;;;;;;3.40;1.70;;;;;;;32.77;45.49;91021.22;5034382;28;20376;-65
2023/07/04 10:12:24;;;;;;;2.47;1.98;;;;;;;35.85;44.01;91015.25;5034104;28;20044;-66
2023/07/04 10:14:56;;;;;;;1.88;1.73;;;;;;;36.32;41.07;91016.69;5033037;28;20095;-66
2023/07/04 10:17:23;;;;;;;;;;;;;;;33.40;45.63;91014.75;5034339;28;20033;-66
2023/07/04 10:19:55;;;;;;;1.70;1.60;;;;;;;31.47;49.08;91005.53;5033891;28;19916;-66
2023/07/04 10:22:29;;;;;;;1.98;1.73;;;;;;;35.64;41.82;91003.09;5033184;28;20021;-66
2023/07/04 10:24:55;;;;;;;1.83;1.73;;;;;;;38.42;37.42;91000.50;5029428;28;20095;-66
2023/07/04 10:27:31;;;;;;;2.22;2.08;;;;;;;40.21;34.94;91010.41;5033180;28;20017;-66
2023/07/04 10:30:00;;;;;;;1.73;1.63;;;;;;;41.55;32.34;91008.56;5033532;28;20116;-67
2023/07/04 10:32:26;;;;;;;1.92;1.50;;;;;;;39.58;35.78;91013.00;5033771;28;20499;-67
2023/07/04 10:34:52;;;;;;;2.67;2.00;;;;;;;40.57;35.96;90990.22;5032886;28;20064;-67
2023/07/04 10:37:22;;;;;;;4.78;2.15;;;;;;;41.19;33.62;91002.53;5033213;28;20043;-66
2023/07/04 10:39:52;;;;;;;1.27;0.95;;;;;;;39.13;35.37;91010.41;5033371;28;20120;-67
2023/07/04 10:42:25;;;;;;;1.55;1.45;;;;;;;37.83;35.67;91006.03;5033036;28;20079;-72
2023/07/04 10:44:55;;;;;;;2.72;2.53;;;;;;;34.46;40.77;91000.97;5032972;28;20128;-67
2023/07/04 10:47:30;;;;;;;2.53;1.80;;;;;;;33.47;42.85;91003.50;5033482;28;20036;-67
2023/07/04 10:50:01;;;;;;;2.90;2.22;;;;;;;32.96;44.54;90998.13;5033778;28;20447;-66
2023/07/04 10:52:31;;;;;;;2.72;2.25;;;;;;;31.07;51.73;90978.31;5032785;28;20021;-66
2023/07/04 10:54:58;;;;;;;2.92;2.65;;;;;;;30.26;56.86;90983.91;5033463;28;20029;-66
2023/07/04 10:57:30;;;;;;;1.70;1.60;;;;;;;32.03;57.84;90985.78;5033433;28;20033;-66
2023/07/04 11:00:04;;;;;;;4.55;2.22;;;;;;;34.12;48.92;90983.31;5033252;28;20025;-67
2023/07/04 11:02:34;;;;;;;2.15;1.92;;;;;;;33.27;47.20;90991.97;5033331;28;20060;-67
2023/07/04 11:05:13;;;;;;;2.15;2.00;;;;;;;30.92;51.94;90985.41;5033079;28;20029;-66
2023/07/04 11:07:42;;;;;;;2.60;2.08;;;;;;;30.66;60.74;90987.28;5031672;28;20558;-67
2023/07/04 11:10:10;;;;;;;11.70;3.22;;;;;;;31.03;60.68;90976.88;5032983;28;20037;-67
2023/07/04 11:12:38;;;;;;;3.85;1.83;;;;;;;33.51;55.35;90978.53;5032754;28;20461;-67
2023/07/04 11:15:20;;;;;;;3.38;3.08;;;;;;;36.14;46.06;90969.66;5032712;28;20061;-67
2023/07/04 11:17:46;;;;;;;3.65;2.17;;;;;;;37.67;43.38;90973.16;5033017;28;20518;-67
2023/07/04 11:20:26;;;;;;;2.25;2.00;;;;;;;36.82;41.56;90967.97;5032379;28;20376;-67
2023/07/04 11:22:52;;;;;;;1.75;1.65;;;;;;;35.65;43.81;90970.66;5032762;28;20033;-66
2023/07/04 11:25:32;;;;;;;7.22;2.10;;;;;;;35.09;44.22;90972.69;5032947;28;20092;-66
2023/07/04 11:28:18;;;;;;;3.20;1.45;;;;;;;34.51;45.72;90975.47;5032590;28;20103;-66
2023/07/04 11:30:47;;;;;;;3.15;2.85;;;;;;;34.56;47.40;90974.91;5032660;28;20101;-65
2023/07/04 11:33:31;;;;;;;2.72;1.35;;;;;;;35.59;44.91;90969.75;5032600;28;20025;-66